Terminal Aerodrome Forecast
Issued by NWS

Home | Current Version | Previous Version | Text Only | Print | Product List | Glossary On
Versions: 1 2 3 4 5 6 7 8 9 10 11 12 13 14
000
FTUS45 KABQ 282324
TAFFMN
TAF
KFMN 282324Z 2900/2924 27018G26KT P6SM VCSH BKN100
     FM290200 25009KT P6SM VCSH BKN080
     FM290800 08006KT P6SM BKN060
     FM291800 27007KT P6SM BKN070
     FM292100 27015G25KT P6SM VCSH BKN080=

USA.gov is the U.S. government's official web portal to all federal, state and local government web resources and services.